Time;durP1;ratioP1;P1;durP2;ratioP2;P2;SDS_P1;SDS_P2;PMS_P1;PMS_P2;Temp;Humidity;BMP_temperature;BMP_pressure;BME280_temperature;BME280_humidity;BME280_pressure;Samples;Min_cycle;Max_cycle;Signal;HPM_P1;HPM_P2
2022/11/21 00:04:10;;;;;;;3.93;3.50;;;8.50;99.90;;;;;;10390719;28;20733;-82
2022/11/21 00:09:12;;;;;;;3.33;3.23;;;8.50;99.90;;;;;;10390180;28;20297;-82
2022/11/21 00:14:14;;;;;;;2.87;2.77;;;8.50;99.90;;;;;;10390997;28;20225;-81
2022/11/21 00:19:18;;;;;;;3.40;3.30;;;8.50;99.90;;;;;;10410846;28;20198;-81
2022/11/21 00:24:20;;;;;;;3.63;3.53;;;8.40;99.90;;;;;;10410024;28;20279;-82
2022/11/21 00:29:22;;;;;;;3.90;3.70;;;8.30;99.90;;;;;;10388405;28;20209;-82
2022/11/21 00:34:25;;;;;;;3.60;3.50;;;8.20;99.90;;;;;;10425775;28;20206;-82
2022/11/21 00:39:27;;;;;;;4.00;3.80;;;8.10;99.90;;;;;;10410320;28;20213;-81
2022/11/21 00:44:29;;;;;;;3.50;3.40;;;8.10;99.90;;;;;;10412351;28;20271;-81
2022/11/21 00:49:33;;;;;;;3.53;3.40;;;8.00;99.90;;;;;;10425382;28;20198;-81
2022/11/21 00:54:35;;;;;;;3.87;3.40;;;7.90;99.90;;;;;;10411609;28;20214;-82
2022/11/21 00:59:37;;;;;;;3.20;3.10;;;7.90;99.90;;;;;;10377212;28;20244;-82
2022/11/21 01:04:40;;;;;;;3.27;3.17;;;7.80;99.90;;;;;;10410459;28;20256;-80
2022/11/21 01:09:42;;;;;;;2.97;2.87;;;7.70;99.90;;;;;;10370753;28;20239;-81
2022/11/21 01:14:44;;;;;;;3.47;3.17;;;7.70;99.90;;;;;;10413303;28;20242;-80
2022/11/21 01:19:48;;;;;;;3.63;3.43;;;7.60;99.90;;;;;;10372516;28;20198;-81
2022/11/21 01:24:50;;;;;;;2.93;2.77;;;7.70;99.90;;;;;;10419207;28;20285;-81
2022/11/21 01:29:52;;;;;;;3.27;3.17;;;7.70;99.90;;;;;;10418508;28;20197;-81
2022/11/21 01:34:55;;;;;;;3.47;3.27;;;7.70;99.90;;;;;;10400298;28;20289;-80
2022/11/21 01:39:57;;;;;;;4.00;3.80;;;7.70;99.90;;;;;;10401288;28;20234;-80
2022/11/21 01:44:59;;;;;;;4.90;4.60;;;7.70;99.90;;;;;;10387731;28;20226;-82
2022/11/21 01:50:03;;;;;;;5.80;5.50;;;7.70;99.90;;;;;;10417404;28;20601;-79
2022/11/21 01:55:08;;;;;;;8.10;7.60;;;7.70;99.90;;;;;;10375696;28;20217;-82
2022/11/21 02:00:15;;;;;;;9.17;8.80;;;7.60;99.90;;;;;;10363944;28;20208;-80
2022/11/21 02:05:23;;;;;;;10.47;9.77;;;7.60;99.90;;;;;;10389460;28;20811;-81
2022/11/21 02:10:25;;;;;;;10.47;9.73;;;7.60;99.90;;;;;;10368023;28;20252;-80
2022/11/21 02:15:29;;;;;;;10.00;9.40;;;7.60;99.90;;;;;;10394755;28;20218;-81
2022/11/21 02:20:32;;;;;;;9.63;9.10;;;7.50;99.90;;;;;;10368019;28;20232;-80
2022/11/21 02:25:37;;;;;;;9.80;9.40;;;7.50;99.90;;;;;;10394721;28;20211;-81
2022/11/21 02:30:41;;;;;;;10.10;9.60;;;7.50;99.90;;;;;;10365960;28;20605;-80
2022/11/21 02:35:43;;;;;;;10.60;10.00;;;7.40;99.90;;;;;;10411444;28;20214;-81
2022/11/21 02:40:53;;;;;;;9.60;9.10;;;7.40;99.90;;;;;;10385063;28;20197;-80
2022/11/21 02:45:55;;;;;;;9.03;8.70;;;7.30;99.90;;;;;;10411696;28;20210;-81
2022/11/21 02:50:57;;;;;;;9.37;8.87;;;7.30;99.90;;;;;;10360162;28;20195;-80
2022/11/21 02:56:01;;;;;;;9.50;8.90;;;7.20;99.90;;;;;;10348572;28;20214;-79
2022/11/21 03:01:03;;;;;;;8.40;8.10;;;7.20;99.90;;;;;;10381973;28;20214;-81
2022/11/21 03:06:05;;;;;;;8.70;8.30;;;7.20;99.90;;;;;;10398377;28;20276;-81
2022/11/21 03:11:08;;;;;;;8.70;8.30;;;7.20;99.90;;;;;;10411139;28;20225;-81
2022/11/21 03:16:10;;;;;;;8.80;8.40;;;7.20;99.90;;;;;;10379311;28;20296;-81
2022/11/21 03:21:12;;;;;;;8.90;8.60;;;7.20;99.90;;;;;;10382274;28;20301;-80
2022/11/21 03:26:16;;;;;;;8.40;8.00;;;7.20;99.90;;;;;;10396321;28;20743;-80
2022/11/21 03:31:18;;;;;;;8.70;8.40;;;7.20;99.90;;;;;;10397731;28;20194;-81
2022/11/21 03:36:20;;;;;;;7.90;7.60;;;7.20;99.90;;;;;;10416295;28;20246;-81
2022/11/21 03:41:30;;;;;;;8.03;7.83;;;7.20;99.90;;;;;;10399170;28;20272;-80
2022/11/21 03:46:34;;;;;;;8.20;7.90;;;7.30;99.90;;;;;;10383321;28;20206;-81
2022/11/21 03:51:37;;;;;;;7.97;7.77;;;7.30;99.90;;;;;;10401628;28;20184;-80
2022/11/21 03:56:40;;;;;;;7.73;7.43;;;7.40;99.90;;;;;;10418538;28;20192;-80
2022/11/21 04:01:42;;;;;;;8.53;8.23;;;7.40;99.90;;;;;;10401756;28;20233;-80
2022/11/21 04:06:44;;;;;;;9.87;9.47;;;7.50;99.90;;;;;;10384097;28;20690;-81
2022/11/21 04:11:47;;;;;;;8.70;8.40;;;7.50;99.90;;;;;;10401589;28;20216;-81
2022/11/21 04:16:50;;;;;;;8.33;7.90;;;7.60;99.90;;;;;;10428564;28;20222;-79
2022/11/21 04:21:52;;;;;;;9.00;8.70;;;7.70;99.90;;;;;;10410469;28;20221;-79
2022/11/21 04:26:55;;;;;;;8.40;8.03;;;7.70;99.90;;;;;;10386966;28;20194;-80
2022/11/21 04:31:58;;;;;;;9.20;8.70;;;7.60;99.90;;;;;;10385898;28;20241;-80
2022/11/21 04:37:00;;;;;;;8.90;8.50;;;7.70;99.90;;;;;;10403813;28;20192;-80
2022/11/21 04:42:03;;;;;;;9.57;9.07;;;7.70;99.90;;;;;;10421957;28;20708;-80
2022/11/21 04:47:05;;;;;;;8.50;8.20;;;7.80;99.90;;;;;;10402850;28;20194;-80
2022/11/21 04:52:07;;;;;;;9.60;9.10;;;7.70;99.90;;;;;;10422675;28;20201;-80
2022/11/21 04:57:11;;;;;;;8.93;8.50;;;7.70;99.90;;;;;;10379431;28;20534;-80
2022/11/21 05:02:13;;;;;;;9.63;9.23;;;7.70;99.90;;;;;;10417676;28;20217;-80
2022/11/21 05:07:15;;;;;;;8.80;8.40;;;7.70;99.90;;;;;;10419463;28;20202;-80
2022/11/21 05:17:39;;;;;;;9.70;9.30;;;7.80;99.90;;;;;;10362166;28;20276;-80
2022/11/21 05:22:41;;;;;;;10.40;9.93;;;7.80;99.90;;;;;;10378776;28;20250;-80
2022/11/21 05:27:44;;;;;;;10.37;9.50;;;7.80;99.90;;;;;;10420036;28;20258;-80
2022/11/21 05:32:46;;;;;;;9.40;9.00;;;7.80;99.90;;;;;;10345854;28;20245;-82
2022/11/21 05:37:48;;;;;;;8.90;8.40;;;7.80;99.90;;;;;;10401402;28;20202;-80
2022/11/21 05:48:11;;;;;;;9.80;9.30;;;7.80;99.90;;;;;;10360302;28;20202;-80
2022/11/21 05:53:13;;;;;;;9.87;9.33;;;7.70;99.90;;;;;;10360497;28;20234;-80
2022/11/21 05:58:17;;;;;;;6.40;6.00;;;7.80;99.90;;;;;;10378060;28;20245;-80
2022/11/21 06:03:29;;;;;;;9.77;9.17;;;7.80;99.90;;;;;;10376066;28;20237;-80
2022/11/21 06:08:33;;;;;;;7.23;6.80;;;7.90;99.90;;;;;;10400139;28;20205;-80
2022/11/21 06:13:37;;;;;;;9.70;9.20;;;7.90;99.90;;;;;;10400351;28;20244;-80
2022/11/21 06:18:40;;;;;;;10.87;10.27;;;8.00;99.90;;;;;;10417840;28;20194;-80
2022/11/21 06:23:43;;;;;;;10.40;9.90;;;8.10;99.90;;;;;;10402329;28;20693;-80
2022/11/21 06:28:47;;;;;;;10.07;9.47;;;8.10;99.90;;;;;;10419099;28;20205;-80
2022/11/21 06:33:52;;;;;;;10.30;9.70;;;8.20;99.90;;;;;;10384687;28;20282;-80
2022/11/21 06:38:56;;;;;;;9.67;9.27;;;8.30;99.90;;;;;;10400889;28;20293;-80
2022/11/21 06:44:00;;;;;;;8.00;7.60;;;8.30;99.90;;;;;;10402117;28;20272;-80
2022/11/21 06:49:02;;;;;;;6.90;6.60;;;8.40;99.90;;;;;;10402649;28;20647;-80
2022/11/21 06:54:05;;;;;;;7.87;7.50;;;8.30;99.90;;;;;;10423408;28;20643;-80
2022/11/21 06:59:08;;;;;;;7.20;6.70;;;8.20;99.90;;;;;;10380040;28;20195;-80
2022/11/21 07:04:10;;;;;;;6.83;6.43;;;8.10;99.90;;;;;;10370723;28;20232;-82
2022/11/21 07:09:12;;;;;;;4.37;4.23;;;8.00;99.90;;;;;;10362231;28;20257;-81
2022/11/21 07:14:17;;;;;;;6.10;5.70;;;7.80;99.90;;;;;;10384771;28;20248;-82
2022/11/21 07:19:19;;;;;;;5.03;4.73;;;7.70;99.90;;;;;;10387004;28;20240;-82
2022/11/21 07:24:21;;;;;;;6.70;6.20;;;7.50;99.90;;;;;;10380208;28;20218;-82
2022/11/21 07:29:25;;;;;;;6.53;6.23;;;7.40;99.90;;;;;;10376233;28;20245;-81
2022/11/21 07:34:27;;;;;;;6.73;6.23;;;7.30;99.90;;;;;;10399930;28;20601;-82
2022/11/21 07:39:29;;;;;;;8.50;7.97;;;7.30;99.90;;;;;;10420677;28;20194;-82
2022/11/21 07:44:32;;;;;;;6.70;6.40;;;7.40;99.90;;;;;;10403335;28;20710;-81
2022/11/21 07:49:34;;;;;;;6.50;6.00;;;7.40;99.90;;;;;;10369108;28;20667;-79
2022/11/21 07:54:36;;;;;;;7.10;6.70;;;7.40;99.90;;;;;;10425999;28;20273;-80
2022/11/21 07:59:40;;;;;;;4.47;4.17;;;7.50;99.90;;;;;;10376842;28;20281;-80
2022/11/21 08:04:42;;;;;;;8.37;7.97;;;7.50;99.90;;;;;;10391514;28;20271;-81
2022/11/21 08:09:44;;;;;;;7.50;6.77;;;7.50;99.90;;;;;;10394803;28;20254;-81
2022/11/21 08:14:48;;;;;;;7.37;6.77;;;7.60;99.90;;;;;;10424681;28;20297;-81
2022/11/21 08:19:50;;;;;;;5.97;5.53;;;7.60;99.90;;;;;;10429512;28;20245;-81
2022/11/21 08:24:53;;;;;;;6.90;6.30;;;7.60;99.90;;;;;;10372693;28;20246;-81
2022/11/21 08:29:56;;;;;;;8.00;7.60;;;7.70;99.90;;;;;;10406446;28;20280;-81
2022/11/21 08:34:58;;;;;;;8.13;7.47;;;7.70;99.90;;;;;;10413829;28;20305;-81
2022/11/21 08:40:01;;;;;;;8.43;7.80;;;7.70;99.90;;;;;;10434436;28;20603;-82
2022/11/21 08:45:05;;;;;;;8.13;7.37;;;7.80;99.90;;;;;;10430752;28;20257;-81
2022/11/21 08:50:08;;;;;;;7.70;7.10;;;7.90;99.90;;;;;;10380043;28;20281;-81
2022/11/21 08:55:10;;;;;;;7.50;6.93;;;8.00;99.90;;;;;;10407781;28;20210;-80
2022/11/21 09:00:15;;;;;;;7.90;7.20;;;8.10;99.90;;;;;;10406073;28;20304;-80
2022/11/21 09:05:17;;;;;;;7.33;6.63;;;8.10;99.90;;;;;;10405815;28;20308;-81
2022/11/21 09:10:19;;;;;;;6.67;6.27;;;8.20;99.90;;;;;;10397931;28;20258;-81
2022/11/21 09:20:43;;;;;;;7.80;7.10;;;8.40;99.90;;;;;;10399636;28;20203;-81
2022/11/21 09:25:45;;;;;;;6.20;5.70;;;8.40;99.90;;;;;;10436051;28;20277;-79
2022/11/21 09:30:49;;;;;;;6.20;5.70;;;8.50;99.90;;;;;;10466141;28;20193;-80
2022/11/21 09:35:51;;;;;;;6.47;5.60;;;8.50;99.90;;;;;;10441876;28;20214;-79
2022/11/21 09:41:50;;;;;;;9.13;5.70;;;8.60;99.90;;;;;;10397922;28;20179;-80
2022/11/21 09:46:29;;;;;;;8.70;4.80;;;8.70;99.90;;;;;;10443330;28;20213;-81
2022/11/21 09:51:32;;;;;;;7.00;5.30;;;8.70;99.90;;;;;;10441001;28;20194;-82
2022/11/21 09:56:38;;;;;;;5.43;4.50;;;8.80;99.90;;;;;;10407157;28;20263;-82
2022/11/21 10:01:41;;;;;;;5.80;5.30;;;8.80;99.90;;;;;;10384872;28;20661;-81
2022/11/21 10:06:51;;;;;;;5.70;5.20;;;8.80;99.90;;;;;;10428806;28;20226;-81
2022/11/21 10:17:31;;;;;;;5.47;5.07;;;8.90;99.90;;;;;;10399481;28;20220;-79
2022/11/21 10:22:50;;;;;;;5.57;4.90;;;9.00;99.90;;;;;;10360670;28;20284;-79
2022/11/21 10:27:56;;;;;;;6.00;5.40;;;9.10;99.90;;;;;;10362176;28;20650;-79
2022/11/21 10:33:03;;;;;;;4.63;4.30;;;9.20;99.90;;;;;;10399200;28;20209;-80
2022/11/21 10:38:21;;;;;;;4.30;3.93;;;9.40;99.90;;;;;;10396235;28;20213;-80
2022/11/21 10:48:59;;;;;;;5.40;2.70;;;9.50;99.90;;;;;;10400334;28;20197;-80
2022/11/21 10:59:28;;;;;;;4.70;4.30;;;9.50;99.90;;;;;;10364268;28;20193;-80
2022/11/21 11:04:32;;;;;;;5.30;4.63;;;9.60;99.90;;;;;;10396919;28;20234;-80
2022/11/21 11:09:35;;;;;;;5.37;4.87;;;9.70;99.90;;;;;;10395188;28;20209;-80
2022/11/21 11:14:37;;;;;;;4.83;3.73;;;9.70;99.90;;;;;;10398800;28;20245;-79
2022/11/21 11:20:00;;;;;;;4.90;3.83;;;9.90;99.90;;;;;;10398107;28;20658;-80
2022/11/21 11:25:04;;;;;;;4.73;4.30;;;10.10;99.90;;;;;;10419917;28;20225;-80
2022/11/21 11:30:08;;;;;;;5.47;3.97;;;10.30;99.90;;;;;;10424404;28;20764;-79
2022/11/21 11:35:22;;;;;;;5.07;4.27;;;10.30;99.90;;;;;;10423899;28;20728;-80
2022/11/21 11:40:30;;;;;;;3.80;3.50;;;10.30;99.90;;;;;;10409373;28;20224;-79
2022/11/21 11:51:25;;;;;;;4.70;3.77;;;10.40;99.90;;;;;;10429827;28;20193;-81
2022/11/21 11:56:31;;;;;;;3.83;3.63;;;10.40;99.90;;;;;;10408762;28;20229;-81
2022/11/21 12:01:39;;;;;;;4.10;3.80;;;10.40;99.90;;;;;;10410890;28;20728;-82
2022/11/21 12:06:49;;;;;;;3.90;3.70;;;10.40;99.90;;;;;;10411463;28;20248;-81
2022/11/21 12:12:07;;;;;;;4.83;3.87;;;10.40;99.90;;;;;;10393831;28;20271;-81
2022/11/21 12:17:11;;;;;;;6.73;4.33;;;10.40;99.90;;;;;;10429503;28;20198;-81
2022/11/21 12:22:14;;;;;;;4.50;3.97;;;10.40;99.90;;;;;;10409868;28;20952;-82
2022/11/21 12:27:24;;;;;;;4.30;4.00;;;10.40;99.90;;;;;;10411253;28;20312;-82
2022/11/21 12:32:38;;;;;;;4.73;4.30;;;10.50;99.90;;;;;;10393363;28;20240;-82
2022/11/21 12:37:49;;;;;;;5.83;4.70;;;10.60;99.90;;;;;;10428065;28;20258;-82
2022/11/21 12:43:03;;;;;;;4.70;4.20;;;10.60;99.90;;;;;;10428597;28;20376;-80
2022/11/21 12:59:04;;;;;;;5.23;3.80;;;10.60;99.90;;;;;;10408725;28;20733;-82
2022/11/21 13:04:09;;;;;;;6.50;4.00;;;10.60;99.90;;;;;;10425592;28;20225;-81
2022/11/21 13:09:19;;;;;;;3.97;3.30;;;10.70;99.90;;;;;;10414200;28;20210;-81
2022/11/21 13:14:28;;;;;;;4.07;3.60;;;10.80;99.90;;;;;;10408971;28;20252;-80
2022/11/21 13:19:37;;;;;;;6.00;3.70;;;10.80;99.90;;;;;;10428879;28;20285;-82
2022/11/21 13:24:58;;;;;;;5.10;4.70;;;10.90;99.90;;;;;;10429152;28;20268;-81
2022/11/21 13:30:25;;;;;;;8.50;4.77;;;10.90;99.90;;;;;;10410612;28;20218;-81
2022/11/21 13:36:04;;;;;;;5.60;4.23;;;10.80;99.90;;;;;;10409820;28;20232;-82
2022/11/21 13:46:57;;;;;;;8.53;4.80;;;10.70;99.90;;;;;;10426307;28;20221;-81
2022/11/21 13:52:06;;;;;;;5.60;4.17;;;10.70;99.90;;;;;;10409816;28;20242;-82
2022/11/21 13:57:28;;;;;;;6.67;4.70;;;10.70;99.90;;;;;;10410666;28;20209;-81
2022/11/21 14:02:58;;;;;;;5.90;3.80;;;10.70;99.90;;;;;;10395849;28;20682;-81
2022/11/21 14:08:13;;;;;;;7.80;6.37;;;10.70;99.90;;;;;;10428938;28;20197;-81
2022/11/21 14:13:27;;;;;;;5.40;4.93;;;10.70;99.90;;;;;;10429993;28;20213;-82
2022/11/21 14:18:30;;;;;;;5.77;5.27;;;10.70;99.90;;;;;;10431082;28;20697;-80
2022/11/21 14:23:34;;;;;;;5.03;4.63;;;10.70;99.90;;;;;;10403470;28;20245;-81
2022/11/21 14:28:37;;;;;;;5.33;4.60;;;10.70;99.90;;;;;;10401696;28;20230;-81
2022/11/21 14:33:41;;;;;;;6.73;4.70;;;10.60;99.90;;;;;;10417760;28;20210;-80
2022/11/21 14:38:45;;;;;;;5.63;4.87;;;10.50;99.90;;;;;;10399444;28;20194;-81
2022/11/21 14:43:48;;;;;;;6.10;4.70;;;10.50;99.90;;;;;;10398384;28;20213;-81
2022/11/21 14:48:51;;;;;;;7.30;5.10;;;10.50;99.90;;;;;;10399519;28;20245;-81
2022/11/21 14:53:54;;;;;;;5.20;4.70;;;10.40;99.90;;;;;;10402652;28;20213;-81
2022/11/21 14:59:01;;;;;;;6.70;4.73;;;10.40;99.90;;;;;;10416554;28;20201;-80
2022/11/21 15:04:06;;;;;;;6.13;3.83;;;10.30;99.90;;;;;;10415985;28;20613;-79
2022/11/21 15:09:12;;;;;;;7.40;5.30;;;10.30;99.90;;;;;;10380554;28;20198;-80
2022/11/21 15:14:21;;;;;;;4.90;4.13;;;10.20;99.90;;;;;;10397582;28;20726;-80
2022/11/21 15:19:25;;;;;;;5.43;4.80;;;10.20;99.90;;;;;;10396921;28;20285;-79
2022/11/21 15:24:38;;;;;;;15.20;13.57;;;10.10;99.90;;;;;;10397377;28;20222;-80
2022/11/21 15:29:42;;;;;;;7.33;5.10;;;10.00;99.90;;;;;;10415395;28;20751;-81
2022/11/21 15:34:44;;;;;;;4.87;3.67;;;9.90;99.90;;;;;;10397796;28;20217;-79
2022/11/21 15:39:48;;;;;;;6.93;5.30;;;9.90;99.90;;;;;;10397329;28;20370;-79
2022/11/21 15:44:59;;;;;;;6.47;5.87;;;9.80;99.90;;;;;;10397065;28;20226;-79
2022/11/21 15:50:01;;;;;;;6.47;5.17;;;9.70;99.90;;;;;;10380328;28;20225;-79
2022/11/21 15:55:04;;;;;;;6.40;4.90;;;9.70;99.90;;;;;;10396978;28;20593;-81
2022/11/21 16:00:08;;;;;;;6.87;5.30;;;9.60;99.90;;;;;;10396903;28;20205;-81
2022/11/21 16:05:15;;;;;;;6.83;5.50;;;9.50;99.90;;;;;;10404176;28;20961;-81
2022/11/21 16:10:17;;;;;;;8.17;6.60;;;9.40;99.90;;;;;;10407252;28;20212;-81
2022/11/21 16:15:21;;;;;;;8.73;6.97;;;9.30;99.90;;;;;;10455418;28;20228;-80
2022/11/21 16:20:23;;;;;;;6.57;5.90;;;9.20;99.90;;;;;;10418837;28;20206;-81
2022/11/21 16:25:25;;;;;;;9.63;6.67;;;9.10;99.90;;;;;;10427264;28;20260;-79
2022/11/21 16:30:29;;;;;;;6.17;5.10;;;9.00;99.90;;;;;;10428906;28;20216;-81
2022/11/21 16:35:31;;;;;;;6.80;6.10;;;9.00;99.90;;;;;;10427815;28;20213;-80
2022/11/21 16:40:33;;;;;;;6.40;5.80;;;8.90;99.90;;;;;;10425744;28;20239;-81
2022/11/21 16:45:36;;;;;;;10.80;6.60;;;8.80;99.90;;;;;;10409594;28;20261;-80
2022/11/21 16:50:38;;;;;;;9.83;7.03;;;8.70;99.90;;;;;;10409792;28;20202;-81
2022/11/21 16:55:41;;;;;;;8.90;6.50;;;8.60;99.90;;;;;;10409540;28;20244;-81
2022/11/21 17:00:44;;;;;;;7.00;6.30;;;8.60;99.90;;;;;;10394546;28;20205;-81
2022/11/21 17:05:56;;;;;;;10.30;7.30;;;8.50;99.90;;;;;;10425965;28;20780;-81
2022/11/21 17:10:58;;;;;;;8.13;6.17;;;8.40;99.90;;;;;;10425637;28;20639;-80
2022/11/21 17:16:05;;;;;;;5.63;5.13;;;8.40;99.90;;;;;;10408675;28;20308;-81
2022/11/21 17:21:09;;;;;;;7.73;5.93;;;8.30;99.90;;;;;;10414209;28;20221;-81
2022/11/21 17:26:13;;;;;;;7.47;5.67;;;8.20;99.90;;;;;;10426460;28;20736;-81
2022/11/21 17:31:16;;;;;;;8.17;6.30;;;8.20;99.90;;;;;;10427136;28;20248;-80
2022/11/21 17:36:20;;;;;;;8.23;7.53;;;8.20;99.90;;;;;;10428046;28;20214;-81
2022/11/21 17:41:24;;;;;;;7.93;7.00;;;8.20;99.90;;;;;;10392957;28;20198;-81
2022/11/21 17:46:27;;;;;;;7.03;6.33;;;8.20;99.90;;;;;;10391775;28;20293;-81
2022/11/21 17:51:32;;;;;;;11.83;10.50;;;8.30;99.90;;;;;;10430288;28;20206;-81
2022/11/21 17:56:36;;;;;;;14.40;12.63;;;8.30;99.90;;;;;;10418196;28;20294;-82
2022/11/21 18:01:39;;;;;;;13.00;9.40;;;8.30;99.90;;;;;;10406613;28;20208;-82
2022/11/21 18:06:41;;;;;;;17.50;13.20;;;8.30;99.90;;;;;;10439151;28;20225;-80
2022/11/21 18:11:43;;;;;;;23.90;19.13;;;8.30;99.90;;;;;;10420556;28;20201;-81
2022/11/21 18:16:47;;;;;;;14.30;12.90;;;8.40;99.90;;;;;;10414287;28;20186;-81
2022/11/21 18:21:50;;;;;;;20.37;14.20;;;8.40;99.90;;;;;;10412622;28;20198;-82
2022/11/21 18:26:52;;;;;;;15.87;14.20;;;8.50;99.90;;;;;;10401231;28;20225;-82
2022/11/21 18:31:56;;;;;;;14.43;13.03;;;8.50;99.90;;;;;;10403444;28;20221;-82
2022/11/21 18:36:58;;;;;;;12.40;11.20;;;8.60;99.90;;;;;;10416450;28;20190;-81
2022/11/21 18:42:00;;;;;;;16.50;11.37;;;8.60;99.90;;;;;;10416826;28;20312;-81
2022/11/21 18:47:04;;;;;;;12.07;10.80;;;8.60;99.90;;;;;;10416574;28;20682;-82
2022/11/21 18:52:06;;;;;;;9.20;8.40;;;8.70;99.90;;;;;;10403703;28;20222;-82
2022/11/21 18:57:08;;;;;;;9.23;8.33;;;8.70;99.90;;;;;;10403657;28;20233;-81
2022/11/21 19:02:11;;;;;;;10.23;8.60;;;8.60;99.90;;;;;;10421515;22;20456;-81
2022/11/21 19:07:13;;;;;;;8.80;8.00;;;8.60;99.90;;;;;;10363758;28;20237;-81
2022/11/21 19:12:16;;;;;;;11.23;8.10;;;8.60;99.90;;;;;;10354308;28;20660;-82
2022/11/21 19:17:19;;;;;;;9.33;8.40;;;8.60;99.90;;;;;;10336392;28;20596;-82
2022/11/21 19:22:22;;;;;;;11.43;9.70;;;8.50;99.90;;;;;;10369919;28;20764;-82
2022/11/21 19:27:24;;;;;;;9.70;8.90;;;8.60;99.90;;;;;;10343172;28;20588;-81
2022/11/21 19:32:29;;;;;;;9.60;8.70;;;8.60;99.90;;;;;;10371281;28;20298;-81
2022/11/21 19:37:31;;;;;;;10.10;9.20;;;8.60;99.90;;;;;;10342869;28;20190;-82
2022/11/21 19:42:33;;;;;;;13.17;8.80;;;8.50;99.90;;;;;;10358598;28;20264;-82
2022/11/21 19:47:37;;;;;;;11.57;9.47;;;8.50;99.90;;;;;;10377760;28;20221;-82
2022/11/21 19:52:39;;;;;;;10.17;9.10;;;8.60;99.90;;;;;;10348250;28;20298;-82
2022/11/21 19:57:41;;;;;;;9.90;8.03;;;8.50;99.90;;;;;;10363344;28;20191;-81
2022/11/21 20:02:44;;;;;;;11.97;10.00;;;8.50;99.90;;;;;;10332468;28;20607;-82
2022/11/21 20:07:46;;;;;;;11.97;9.47;;;8.60;99.90;;;;;;10379589;28;20238;-81
2022/11/21 20:12:49;;;;;;;10.07;9.13;;;8.60;99.90;;;;;;10328206;28;20578;-82
2022/11/21 20:17:52;;;;;;;10.00;8.30;;;8.60;99.90;;;;;;10377771;28;20192;-81
2022/11/21 20:22:54;;;;;;;11.87;10.70;;;8.60;99.90;;;;;;10347603;28;20222;-81
2022/11/21 20:27:57;;;;;;;13.47;10.13;;;8.60;99.90;;;;;;10362326;28;20315;-81
2022/11/21 20:33:00;;;;;;;12.80;11.47;;;8.70;99.90;;;;;;10328161;28;20222;-82
2022/11/21 20:38:02;;;;;;;13.47;11.87;;;8.70;99.90;;;;;;10361559;28;20282;-82
2022/11/21 20:43:05;;;;;;;12.00;9.80;;;8.70;99.90;;;;;;10335565;28;20214;-82
2022/11/21 20:48:08;;;;;;;14.93;13.30;;;8.70;99.90;;;;;;10344008;28;20243;-81
2022/11/21 20:53:10;;;;;;;8.77;7.87;;;8.70;99.90;;;;;;10381096;28;20214;-82
2022/11/21 20:58:12;;;;;;;8.07;7.33;;;8.70;99.90;;;;;;10346391;28;20727;-82
2022/11/21 21:03:16;;;;;;;10.03;8.83;;;8.70;99.90;;;;;;10381541;28;20321;-82
2022/11/21 21:08:18;;;;;;;10.10;7.10;;;8.80;99.90;;;;;;10343007;28;20211;-83
2022/11/21 21:13:20;;;;;;;9.80;7.10;;;8.80;99.90;;;;;;10383337;28;20554;-82
2022/11/21 21:18:23;;;;;;;10.23;6.97;;;8.80;99.90;;;;;;10341815;28;20292;-81
2022/11/21 21:23:25;;;;;;;7.60;6.30;;;8.90;99.90;;;;;;10317442;28;20655;-82
2022/11/21 21:28:27;;;;;;;7.63;6.20;;;9.00;99.90;;;;;;10384283;28;20218;-82
2022/11/21 21:33:31;;;;;;;7.50;6.80;;;9.00;99.90;;;;;;10301772;28;20287;-82
2022/11/21 21:38:33;;;;;;;6.47;5.80;;;9.10;99.90;;;;;;10380151;28;20205;-82
2022/11/21 21:43:35;;;;;;;6.70;6.00;;;9.10;99.90;;;;;;10356158;28;20215;-82
2022/11/21 21:48:38;;;;;;;7.20;6.13;;;9.10;99.90;;;;;;10339099;28;20576;-83
2022/11/21 21:53:41;;;;;;;7.53;6.63;;;9.10;99.90;;;;;;10376208;28;20744;-81
2022/11/21 21:58:44;;;;;;;6.17;5.67;;;9.20;99.90;;;;;;10340155;28;20234;-83
2022/11/21 22:03:48;;;;;;;7.00;5.10;;;9.20;99.90;;;;;;10359493;28;20317;-82
2022/11/21 22:08:51;;;;;;;7.37;6.50;;;9.20;99.90;;;;;;10327656;28;20287;-82
2022/11/21 22:13:55;;;;;;;8.03;5.70;;;9.30;99.90;;;;;;10361920;28;20231;-81
2022/11/21 22:18:58;;;;;;;7.07;6.37;;;9.30;99.90;;;;;;10342760;28;20198;-82
2022/11/21 22:24:03;;;;;;;5.90;5.37;;;9.30;99.90;;;;;;10305320;28;20221;-83
2022/11/21 22:29:05;;;;;;;4.60;4.30;;;9.30;99.90;;;;;;10317159;28;20215;-82
2022/11/21 22:34:11;;;;;;;6.20;4.60;;;9.40;99.90;;;;;;10354278;28;20223;-82
2022/11/21 22:39:14;;;;;;;5.73;5.10;;;9.40;99.90;;;;;;10339072;28;20203;-82
2022/11/21 22:44:16;;;;;;;6.50;5.57;;;9.40;99.90;;;;;;10345859;28;20433;-81
2022/11/21 22:49:19;;;;;;;5.90;5.47;;;9.40;99.90;;;;;;10337855;28;20203;-81
2022/11/21 22:54:21;;;;;;;8.17;7.37;;;9.40;99.90;;;;;;10346045;28;20229;-82
2022/11/21 22:59:23;;;;;;;5.83;5.30;;;9.40;99.90;;;;;;10335407;28;20207;-81
2022/11/21 23:04:27;;;;;;;5.97;4.10;;;9.40;99.90;;;;;;10321131;28;20657;-81
2022/11/21 23:09:29;;;;;;;7.60;6.37;;;9.30;99.90;;;;;;10348093;28;20199;-81
2022/11/21 23:14:31;;;;;;;7.13;6.50;;;9.20;99.90;;;;;;10334769;28;20592;-82
2022/11/21 23:19:34;;;;;;;7.23;6.53;;;9.10;99.90;;;;;;10351007;28;20206;-82
2022/11/21 23:24:36;;;;;;;7.20;6.57;;;9.10;99.90;;;;;;10326814;28;20226;-82
2022/11/21 23:29:38;;;;;;;25.57;19.37;;;8.90;99.90;;;;;;10371630;28;20222;-82
2022/11/21 23:34:42;;;;;;;11.57;9.00;;;8.80;99.90;;;;;;10327699;28;20230;-81
2022/11/21 23:39:44;;;;;;;9.93;6.87;;;8.80;99.90;;;;;;10353538;28;20199;-82
2022/11/21 23:44:47;;;;;;;6.20;5.60;;;8.70;99.90;;;;;;10342414;28;20254;-82
2022/11/21 23:49:50;;;;;;;6.50;6.00;;;8.70;99.90;;;;;;10345735;28;20207;-81
2022/11/21 23:54:52;;;;;;;6.33;5.73;;;8.60;99.90;;;;;;10337107;28;20358;-80
2022/11/21 23:59:54;;;;;;;6.00;5.43;;;8.70;99.90;;;;;;10348520;28;20234;-81
